Time;durP1;ratioP1;P1;durP2;ratioP2;P2;SDS_P1;SDS_P2;PMS_P1;PMS_P2;Temp;Humidity;BMP_temperature;BMP_pressure;BME280_temperature;BME280_humidity;BME280_pressure;Samples;Min_cycle;Max_cycle;Signal;HPM_P1;HPM_P2
2022/02/28 00:00:35;;;;;;;0.30;0.30;;;1.50;69.70;;;;;;4997082;28;20550;-69
2022/02/28 00:03:02;;;;;;;0.40;0.40;;;1.60;70.10;;;;;;4997289;28;20211;-68
2022/02/28 00:05:28;;;;;;;0.30;0.30;;;1.60;70.20;;;;;;4997110;28;20173;-69
2022/02/28 00:07:53;;;;;;;0.30;0.30;;;1.70;70.60;;;;;;4997069;28;20207;-67
2022/02/28 00:10:19;;;;;;;0.40;0.40;;;1.60;70.20;;;;;;4996840;28;20173;-67
2022/02/28 00:12:45;;;;;;;0.40;0.40;;;1.60;70.00;;;;;;4979354;28;20246;-67
2022/02/28 00:15:13;;;;;;;0.40;0.40;;;1.60;69.90;;;;;;4996865;28;20453;-67
2022/02/28 00:17:39;;;;;;;0.40;0.40;;;1.40;70.80;;;;;;4996889;28;20582;-67
2022/02/28 00:20:10;;;;;;;0.37;0.37;;;1.30;71.60;;;;;;4979454;28;20265;-67
2022/02/28 00:22:36;;;;;;;0.40;0.40;;;1.30;72.40;;;;;;4979338;28;20475;-69
2022/02/28 00:25:03;;;;;;;0.40;0.40;;;1.20;72.40;;;;;;4996973;28;20216;-67
2022/02/28 00:27:29;;;;;;;0.40;0.40;;;1.20;72.90;;;;;;4996826;28;20179;-66
2022/02/28 00:29:54;;;;;;;0.40;0.40;;;1.10;73.60;;;;;;4996672;28;20650;-67
2022/02/28 00:32:21;;;;;;;0.40;0.40;;;1.00;73.90;;;;;;4996790;28;20188;-68
2022/02/28 00:34:47;;;;;;;0.43;0.43;;;1.00;74.80;;;;;;4978981;28;20578;-68
2022/02/28 00:37:13;;;;;;;0.40;0.40;;;0.90;74.80;;;;;;4996621;28;20169;-66
2022/02/28 00:39:38;;;;;;;0.40;0.40;;;0.90;74.60;;;;;;4996753;28;20905;-68
2022/02/28 00:42:04;;;;;;;0.40;0.40;;;0.80;74.90;;;;;;4996334;28;20211;-67
2022/02/28 00:44:30;;;;;;;1.00;1.00;;;0.80;75.50;;;;;;4996425;28;20255;-67
2022/02/28 00:46:56;;;;;;;0.40;0.40;;;0.80;76.00;;;;;;4996056;28;20403;-66
2022/02/28 00:49:21;;;;;;;0.30;0.30;;;0.70;76.20;;;;;;4996738;28;20408;-67
2022/02/28 00:51:47;;;;;;;0.50;0.50;;;0.60;76.70;;;;;;4996064;28;20175;-68
2022/02/28 00:54:13;;;;;;;0.40;0.40;;;0.60;76.90;;;;;;4996568;28;20172;-68
2022/02/28 00:56:38;;;;;;;0.40;0.40;;;0.60;77.10;;;;;;4994719;28;20204;-68
2022/02/28 00:59:04;;;;;;;0.40;0.40;;;0.50;77.30;;;;;;4996277;28;20164;-68
2022/02/28 01:01:30;;;;;;;0.40;0.40;;;0.50;77.40;;;;;;4994901;28;20177;-68
2022/02/28 01:03:55;;;;;;;0.30;0.30;;;0.50;77.10;;;;;;4995922;28;20192;-68
2022/02/28 01:06:21;;;;;;;0.40;0.40;;;0.50;76.30;;;;;;4978604;28;20969;-68
2022/02/28 01:08:47;;;;;;;0.30;0.30;;;0.50;76.20;;;;;;4996211;28;20175;-67
2022/02/28 01:11:12;;;;;;;0.40;0.40;;;0.40;77.30;;;;;;4995871;28;20548;-68
2022/02/28 01:13:38;;;;;;;0.30;0.30;;;0.30;78.60;;;;;;4995758;28;20207;-67
2022/02/28 01:16:04;;;;;;;0.40;0.40;;;0.30;79.40;;;;;;4995948;28;20204;-67
2022/02/28 01:18:30;;;;;;;0.47;0.47;;;0.40;79.50;;;;;;4995993;28;20548;-68
2022/02/28 01:20:55;;;;;;;0.40;0.40;;;0.50;79.10;;;;;;4995644;28;20415;-67
2022/02/28 01:23:21;;;;;;;0.40;0.40;;;0.50;78.70;;;;;;4978086;28;20733;-67
2022/02/28 01:25:46;;;;;;;0.40;0.40;;;0.50;78.60;;;;;;4996026;28;20173;-67
2022/02/28 01:28:12;;;;;;;0.40;0.40;;;0.40;77.90;;;;;;4995728;28;20168;-66
2022/02/28 01:30:39;;;;;;;0.30;0.30;;;0.50;78.00;;;;;;4995531;28;20168;-67
2022/02/28 01:33:05;;;;;;;0.30;0.30;;;0.60;78.00;;;;;;4978027;28;20203;-66
2022/02/28 01:35:32;;;;;;;0.40;0.40;;;0.50;77.10;;;;;;4994903;28;20204;-68
2022/02/28 01:37:58;;;;;;;0.30;0.30;;;0.50;77.10;;;;;;4995639;28;20168;-67
2022/02/28 01:40:24;;;;;;;0.38;0.38;;;0.50;77.10;;;;;;4995173;28;20668;-67
2022/02/28 01:42:51;;;;;;;0.40;0.40;;;0.60;77.80;;;;;;4995517;28;20196;-66
2022/02/28 01:45:22;;;;;;;0.40;0.40;;;0.60;77.40;;;;;;4995268;28;20172;-67
2022/02/28 01:47:50;;;;;;;0.40;0.40;;;0.60;77.60;;;;;;4995314;28;20597;-68
2022/02/28 01:50:16;;;;;;;0.40;0.40;;;0.60;78.30;;;;;;4995219;28;20242;-68
2022/02/28 01:52:42;;;;;;;0.50;0.50;;;0.50;78.20;;;;;;4995019;28;20670;-67
2022/02/28 01:55:09;;;;;;;0.60;0.60;;;0.40;77.40;;;;;;4977601;28;20510;-67
2022/02/28 01:57:35;;;;;;;0.40;0.40;;;0.30;78.20;;;;;;4994871;28;20403;-67
2022/02/28 02:00:03;;;;;;;0.30;0.30;;;0.30;78.50;;;;;;4994514;28;20168;-68
2022/02/28 02:02:29;;;;;;;0.40;0.40;;;0.30;79.40;;;;;;4995079;28;20267;-67
2022/02/28 02:04:54;;;;;;;0.40;0.40;;;0.40;79.20;;;;;;4995044;28;20310;-68
2022/02/28 02:07:20;;;;;;;0.40;0.40;;;0.40;79.10;;;;;;4994928;28;20259;-67
2022/02/28 02:09:46;;;;;;;0.40;0.40;;;0.40;79.00;;;;;;4995007;28;20180;-67
2022/02/28 02:12:12;;;;;;;0.40;0.40;;;0.30;79.40;;;;;;4994382;28;20215;-68
2022/02/28 02:14:39;;;;;;;0.47;0.47;;;0.30;79.90;;;;;;4994887;28;20278;-69
2022/02/28 02:17:05;;;;;;;0.40;0.40;;;0.30;79.90;;;;;;4977239;28;20700;-67
2022/02/28 02:19:34;;;;;;;0.30;0.30;;;0.20;79.90;;;;;;4994767;28;20255;-68
2022/02/28 02:22:00;;;;;;;0.55;0.55;;;0.10;79.80;;;;;;4994539;28;20521;-67
2022/02/28 02:24:26;;;;;;;0.30;0.30;;;0.10;80.40;;;;;;4994673;28;20201;-68
2022/02/28 02:26:51;;;;;;;0.30;0.30;;;0.10;81.00;;;;;;4994714;28;20180;-68
2022/02/28 02:29:17;;;;;;;0.33;0.33;;;0.10;81.20;;;;;;4994674;28;20187;-67
2022/02/28 02:31:43;;;;;;;0.40;0.40;;;0.10;81.00;;;;;;4994292;28;20176;-68
2022/02/28 02:34:08;;;;;;;0.40;0.40;;;0.10;81.00;;;;;;4994776;28;20626;-67
2022/02/28 02:36:34;;;;;;;0.30;0.30;;;0.20;81.40;;;;;;4994556;28;20196;-66
2022/02/28 02:39:00;;;;;;;0.40;0.40;;;0.10;81.50;;;;;;4994482;28;20169;-68
2022/02/28 02:41:25;;;;;;;0.40;0.40;;;0.10;81.10;;;;;;4994216;28;20681;-68
2022/02/28 02:43:51;;;;;;;0.40;0.40;;;0.10;80.90;;;;;;4994208;28;20219;-68
2022/02/28 02:46:17;;;;;;;0.40;0.40;;;0.00;81.30;;;;;;4994266;28;20604;-67
2022/02/28 02:48:42;;;;;;;0.30;0.30;;;0.00;81.30;;;;;;4994311;28;20411;-67
2022/02/28 02:51:08;;;;;;;0.30;0.30;;;-0.20;81.50;;;;;;4994109;28;20179;-68
2022/02/28 02:53:34;;;;;;;0.30;0.30;;;-0.20;81.80;;;;;;4994136;28;20258;-68
2022/02/28 02:55:59;;;;;;;0.50;0.50;;;-0.20;82.30;;;;;;4993918;28;20196;-67
2022/02/28 02:58:25;;;;;;;0.40;0.40;;;-0.30;82.80;;;;;;4994274;28;20403;-68
2022/02/28 03:00:53;;;;;;;0.50;0.50;;;-0.30;82.80;;;;;;4993898;28;20222;-66
2022/02/28 03:03:22;;;;;;;0.50;0.50;;;-0.20;82.70;;;;;;4994101;28;20192;-66
2022/02/28 03:05:49;;;;;;;0.40;0.40;;;-0.30;82.80;;;;;;4994159;28;20180;-67
2022/02/28 03:08:15;;;;;;;0.50;0.50;;;-0.30;83.40;;;;;;4994200;28;20168;-66
2022/02/28 03:10:40;;;;;;;0.50;0.50;;;-0.30;82.40;;;;;;4996776;28;20186;-69
2022/02/28 03:13:06;;;;;;;0.70;0.70;;;-0.20;82.70;;;;;;4998212;28;20295;-67
2022/02/28 03:15:32;;;;;;;0.40;0.40;;;-0.40;83.00;;;;;;4998186;28;20517;-68
2022/02/28 03:17:58;;;;;;;0.50;0.50;;;-0.40;83.30;;;;;;4998079;28;20897;-67
2022/02/28 03:20:24;;;;;;;0.50;0.50;;;-0.40;83.50;;;;;;4998095;28;20667;-67
2022/02/28 03:22:50;;;;;;;1.10;1.10;;;-0.40;83.80;;;;;;4998177;28;20230;-67
2022/02/28 03:25:16;;;;;;;0.40;0.40;;;-0.40;83.40;;;;;;4997839;28;20200;-67
2022/02/28 03:27:42;;;;;;;0.60;0.60;;;-0.30;83.40;;;;;;4997783;28;20199;-67
2022/02/28 03:30:09;;;;;;;0.67;0.67;;;-0.40;83.00;;;;;;4997825;28;20176;-68
2022/02/28 03:32:35;;;;;;;0.60;0.60;;;-0.40;83.10;;;;;;4997863;28;20435;-68
2022/02/28 03:35:02;;;;;;;0.50;0.50;;;-0.50;83.10;;;;;;4995408;28;20603;-68
2022/02/28 03:37:27;;;;;;;0.40;0.40;;;-0.50;83.60;;;;;;4997868;28;20226;-68
2022/02/28 03:39:55;;;;;;;0.40;0.40;;;-0.40;83.80;;;;;;4980181;28;20227;-67
2022/02/28 03:42:20;;;;;;;0.35;0.35;;;-0.40;83.20;;;;;;4997489;28;20192;-68
2022/02/28 03:44:46;;;;;;;0.40;0.40;;;-0.40;83.40;;;;;;4997564;28;20553;-67
2022/02/28 03:47:12;;;;;;;0.50;0.50;;;-0.40;83.30;;;;;;4997820;28;20176;-68
2022/02/28 03:49:38;;;;;;;0.40;0.40;;;-0.40;84.10;;;;;;4997738;28;20187;-68
2022/02/28 03:52:04;;;;;;;0.50;0.50;;;-0.40;84.40;;;;;;4997319;28;20267;-67
2022/02/28 03:54:30;;;;;;;0.40;0.40;;;-0.40;83.60;;;;;;4997059;28;20187;-67
2022/02/28 03:56:56;;;;;;;0.60;0.60;;;-0.40;83.00;;;;;;4997279;28;20168;-68
2022/02/28 03:59:21;;;;;;;0.40;0.40;;;-0.40;82.80;;;;;;4997317;28;20255;-67
2022/02/28 04:01:47;;;;;;;0.60;0.60;;;-0.40;82.60;;;;;;4996997;28;20653;-67
2022/02/28 04:04:13;;;;;;;0.50;0.50;;;-0.40;82.90;;;;;;4997209;28;20168;-68
2022/02/28 04:06:40;;;;;;;0.50;0.50;;;-0.50;83.30;;;;;;4997296;28;20246;-67
2022/02/28 04:09:06;;;;;;;0.50;0.50;;;-0.60;83.60;;;;;;4997245;28;20598;-67
2022/02/28 04:11:33;;;;;;;0.50;0.50;;;-0.80;83.80;;;;;;4996744;28;20259;-67
2022/02/28 04:13:59;;;;;;;0.43;0.43;;;-1.00;84.60;;;;;;4996977;28;20646;-67
2022/02/28 04:16:25;;;;;;;0.50;0.50;;;-0.90;84.90;;;;;;4996965;28;20210;-67
2022/02/28 04:18:51;;;;;;;0.50;0.50;;;-0.80;86.00;;;;;;4996987;28;20168;-67
2022/02/28 04:21:16;;;;;;;0.43;0.43;;;-0.70;85.30;;;;;;4995687;28;20415;-68
2022/02/28 04:23:42;;;;;;;0.70;0.70;;;-0.80;84.30;;;;;;4996779;28;20194;-67
2022/02/28 04:26:08;;;;;;;0.50;0.50;;;-0.80;83.80;;;;;;4997003;28;20188;-67
2022/02/28 04:28:33;;;;;;;0.70;0.70;;;-0.80;83.60;;;;;;4996753;28;20169;-67
2022/02/28 04:30:59;;;;;;;0.60;0.60;;;-0.70;83.20;;;;;;4996622;28;20172;-67
2022/02/28 04:33:25;;;;;;;0.50;0.50;;;-0.80;83.60;;;;;;4996590;28;20217;-68
2022/02/28 04:35:50;;;;;;;0.53;0.53;;;-0.80;83.90;;;;;;4996423;28;20289;-68
2022/02/28 04:38:16;;;;;;;0.60;0.60;;;-0.70;84.30;;;;;;4996732;28;20172;-68
2022/02/28 04:40:41;;;;;;;0.60;0.60;;;-0.70;84.50;;;;;;4996304;28;20191;-66
2022/02/28 04:43:07;;;;;;;0.53;0.53;;;-0.80;84.10;;;;;;4996428;28;20191;-67
2022/02/28 04:45:33;;;;;;;0.50;0.50;;;-0.70;84.00;;;;;;4996515;28;20634;-67
2022/02/28 04:47:58;;;;;;;0.57;0.57;;;-0.70;84.10;;;;;;4996502;28;20172;-67
2022/02/28 04:50:24;;;;;;;0.50;0.50;;;-0.70;84.60;;;;;;4996299;28;20694;-68
2022/02/28 04:52:50;;;;;;;0.60;0.60;;;-0.80;84.70;;;;;;4996374;28;20594;-68
2022/02/28 04:55:16;;;;;;;0.70;0.70;;;-0.80;84.40;;;;;;4978625;28;20740;-67
2022/02/28 04:57:44;;;;;;;0.60;0.60;;;-0.80;84.60;;;;;;4995678;28;20176;-67
2022/02/28 05:00:11;;;;;;;0.50;0.50;;;-0.80;84.60;;;;;;4995959;28;20164;-66
2022/02/28 05:02:38;;;;;;;0.50;0.50;;;-0.80;84.30;;;;;;4996090;28;20593;-66
2022/02/28 05:05:04;;;;;;;0.60;0.60;;;-0.80;84.50;;;;;;4996130;28;20172;-67
2022/02/28 05:07:30;;;;;;;0.60;0.60;;;-0.80;84.60;;;;;;4996186;28;20176;-67
2022/02/28 05:09:57;;;;;;;0.57;0.57;;;-0.90;84.20;;;;;;4996011;28;20174;-67
2022/02/28 05:12:23;;;;;;;2.90;2.67;;;-1.00;84.30;;;;;;4995689;28;20274;-67
2022/02/28 05:14:48;;;;;;;0.53;0.53;;;-1.00;84.40;;;;;;4995813;28;20196;-68
2022/02/28 05:17:14;;;;;;;0.50;0.50;;;-1.10;84.70;;;;;;4996030;28;20404;-66
2022/02/28 05:19:40;;;;;;;0.60;0.60;;;-1.20;85.40;;;;;;4996010;28;20180;-68
2022/02/28 05:22:06;;;;;;;0.60;0.60;;;-1.10;85.90;;;;;;4995470;28;20185;-66
2022/02/28 05:24:32;;;;;;;0.60;0.60;;;-1.10;85.90;;;;;;4995672;28;20526;-67
2022/02/28 05:26:58;;;;;;;0.43;0.43;;;-1.10;85.10;;;;;;4995690;28;20657;-67
2022/02/28 05:29:24;;;;;;;0.47;0.47;;;-1.10;85.20;;;;;;4995783;28;20172;-67
2022/02/28 05:31:49;;;;;;;0.60;0.60;;;-1.10;85.00;;;;;;4995511;28;20771;-66
2022/02/28 05:34:15;;;;;;;0.70;0.70;;;-1.10;84.90;;;;;;4995323;28;20901;-68
2022/02/28 05:36:41;;;;;;;0.60;0.60;;;-1.20;85.40;;;;;;4995141;28;20843;-67
2022/02/28 05:39:06;;;;;;;0.70;0.70;;;-1.10;85.60;;;;;;4995540;28;20622;-67
2022/02/28 05:41:32;;;;;;;0.60;0.60;;;-1.10;85.10;;;;;;4995280;28;20176;-68
2022/02/28 05:43:57;;;;;;;0.50;0.50;;;-1.10;85.20;;;;;;4995245;28;20192;-68
2022/02/28 05:46:23;;;;;;;0.63;0.63;;;-1.20;85.00;;;;;;4995580;28;20649;-67
2022/02/28 05:48:49;;;;;;;0.53;0.53;;;-1.20;85.30;;;;;;4995461;28;20525;-68
2022/02/28 05:51:14;;;;;;;0.53;0.53;;;-1.20;85.50;;;;;;4995060;28;20204;-66
2022/02/28 05:53:40;;;;;;;0.60;0.60;;;-1.20;85.70;;;;;;4995123;28;20233;-68
2022/02/28 05:56:06;;;;;;;0.50;0.50;;;-1.20;85.60;;;;;;4994848;28;20550;-67
2022/02/28 05:58:32;;;;;;;0.50;0.50;;;-1.20;85.30;;;;;;4995176;28;20420;-67
2022/02/28 06:00:58;;;;;;;0.50;0.50;;;-1.20;85.40;;;;;;4994871;28;20760;-68
2022/02/28 06:03:23;;;;;;;0.50;0.50;;;-1.20;85.80;;;;;;4995046;28;20199;-67
2022/02/28 06:05:49;;;;;;;0.50;0.50;;;-1.10;85.80;;;;;;4977626;28;20454;-68
2022/02/28 06:08:15;;;;;;;0.50;0.50;;;-1.20;85.70;;;;;;4994672;28;20180;-68
2022/02/28 06:10:41;;;;;;;0.50;0.50;;;-1.10;86.50;;;;;;4994707;28;20180;-67
2022/02/28 06:13:06;;;;;;;0.40;0.40;;;-1.10;85.60;;;;;;4994649;28;20501;-68
2022/02/28 06:15:33;;;;;;;0.43;0.43;;;-1.10;86.10;;;;;;4994448;28;20485;-68
2022/02/28 06:18:02;;;;;;;0.30;0.30;;;-1.10;86.30;;;;;;4994795;28;20589;-68
2022/02/28 06:20:28;;;;;;;0.40;0.40;;;-1.00;85.80;;;;;;4993576;28;20176;-68
2022/02/28 06:22:54;;;;;;;0.50;0.50;;;-1.00;85.60;;;;;;4994547;28;20267;-67
2022/02/28 06:25:20;;;;;;;0.70;0.70;;;-0.90;85.50;;;;;;4977169;28;20275;-68
2022/02/28 06:27:45;;;;;;;0.40;0.40;;;-0.90;85.10;;;;;;4994758;28;20413;-68
2022/02/28 06:30:11;;;;;;;0.67;0.67;;;-0.90;85.50;;;;;;4976972;28;20909;-68
2022/02/28 06:32:37;;;;;;;0.40;0.40;;;-0.90;86.00;;;;;;4994521;28;20227;-69
2022/02/28 06:35:04;;;;;;;0.50;0.50;;;-0.90;85.70;;;;;;4994335;28;20451;-67
2022/02/28 06:37:30;;;;;;;0.60;0.60;;;-0.80;85.50;;;;;;4994259;28;20184;-69
2022/02/28 06:39:55;;;;;;;0.50;0.50;;;-0.70;85.30;;;;;;4994284;28;20276;-67
2022/02/28 06:42:21;;;;;;;0.50;0.50;;;-0.70;85.30;;;;;;4994618;28;20593;-67
2022/02/28 06:44:47;;;;;;;0.60;0.60;;;-0.60;85.30;;;;;;4993940;28;20199;-67
2022/02/28 06:47:12;;;;;;;0.60;0.60;;;-0.50;84.90;;;;;;4994487;28;20176;-68
2022/02/28 06:49:38;;;;;;;0.50;0.50;;;-0.50;84.10;;;;;;4994434;28;20164;-67
2022/02/28 06:52:04;;;;;;;0.40;0.40;;;-0.50;84.00;;;;;;4993972;28;20188;-66
2022/02/28 06:54:30;;;;;;;0.60;0.60;;;-0.60;84.20;;;;;;4994177;28;20191;-67
2022/02/28 06:56:57;;;;;;;0.45;0.45;;;-0.80;84.30;;;;;;4994327;28;20204;-67
2022/02/28 06:59:23;;;;;;;0.60;0.60;;;-0.80;85.40;;;;;;4994257;28;20226;-67
2022/02/28 07:01:49;;;;;;;0.50;0.50;;;-0.70;86.00;;;;;;4994060;28;20251;-67
2022/02/28 07:04:14;;;;;;;0.40;0.40;;;-0.60;86.20;;;;;;4994055;28;20407;-67
2022/02/28 07:06:40;;;;;;;0.50;0.50;;;-0.50;85.50;;;;;;4994103;28;20180;-67
2022/02/28 07:09:07;;;;;;;0.40;0.40;;;-0.40;84.70;;;;;;4994343;28;20682;-67
2022/02/28 07:11:34;;;;;;;0.43;0.43;;;-0.30;84.80;;;;;;4976246;28;20629;-68
2022/02/28 07:14:00;;;;;;;0.60;0.60;;;-0.30;84.40;;;;;;4994051;28;20198;-68
2022/02/28 07:16:26;;;;;;;0.55;0.55;;;-0.30;84.30;;;;;;4994069;28;20192;-66
2022/02/28 07:18:52;;;;;;;0.60;0.60;;;-0.20;84.70;;;;;;4994052;28;20259;-66
2022/02/28 07:21:18;;;;;;;0.50;0.50;;;-0.10;84.50;;;;;;4993884;28;20403;-68
2022/02/28 07:23:44;;;;;;;0.50;0.50;;;-0.10;83.60;;;;;;4993959;28;20211;-67
2022/02/28 07:26:10;;;;;;;0.32;0.32;;;0.00;82.20;;;;;;4993987;28;20184;-68
2022/02/28 07:28:36;;;;;;;0.40;0.40;;;0.20;83.20;;;;;;4993968;28;20172;-67
2022/02/28 07:31:02;;;;;;;0.63;0.63;;;0.90;82.20;;;;;;4993729;28;20929;-68
2022/02/28 07:33:28;;;;;;;0.30;0.30;;;2.80;78.50;;;;;;4994496;28;20197;-67
2022/02/28 07:35:53;;;;;;;0.30;0.30;;;5.30;68.30;;;;;;4993691;28;20654;-68
2022/02/28 07:38:19;;;;;;;0.30;0.30;;;7.00;58.10;;;;;;4993969;28;20253;-66
2022/02/28 07:40:45;;;;;;;0.40;0.40;;;8.30;53.40;;;;;;4993549;28;20183;-68
2022/02/28 07:43:10;;;;;;;0.40;0.40;;;9.20;50.00;;;;;;4993970;28;20212;-68
2022/02/28 07:45:36;;;;;;;0.40;0.40;;;9.80;47.80;;;;;;4993751;28;20170;-67
2022/02/28 07:48:02;;;;;;;0.30;0.30;;;10.70;44.30;;;;;;4993814;28;20179;-68
2022/02/28 07:50:27;;;;;;;0.47;0.47;;;11.80;43.20;;;;;;4993776;28;20176;-68
2022/02/28 07:52:53;;;;;;;1.23;1.23;;;12.90;40.40;;;;;;4993721;28;20518;-68
2022/02/28 07:55:19;;;;;;;0.30;0.30;;;13.40;38.30;;;;;;4993644;28;20286;-69
2022/02/28 07:57:44;;;;;;;0.40;0.40;;;14.20;37.10;;;;;;4996507;28;20634;-68
2022/02/28 08:00:11;;;;;;;0.30;0.30;;;14.70;35.90;;;;;;4997260;28;20626;-67
2022/02/28 08:02:37;;;;;;;0.30;0.30;;;15.20;34.20;;;;;;4997358;28;20184;-68
2022/02/28 08:05:03;;;;;;;0.40;0.40;;;15.20;34.80;;;;;;4997418;28;20450;-67
2022/02/28 08:07:29;;;;;;;0.40;0.40;;;15.40;34.10;;;;;;4997198;28;20409;-67
2022/02/28 08:09:54;;;;;;;1.80;1.70;;;15.90;34.00;;;;;;4997024;28;20408;-65
2022/02/28 08:12:20;;;;;;;0.30;0.30;;;16.20;32.50;;;;;;4996914;28;20215;-66
2022/02/28 08:14:46;;;;;;;0.80;0.77;;;16.30;32.50;;;;;;4996984;28;20259;-67
2022/02/28 08:17:11;;;;;;;0.30;0.30;;;16.20;32.40;;;;;;4997108;28;20183;-67
2022/02/28 08:19:37;;;;;;;0.30;0.30;;;16.50;32.60;;;;;;4997166;28;20165;-66
2022/02/28 08:22:03;;;;;;;0.30;0.30;;;17.10;31.80;;;;;;4996744;28;20188;-66
2022/02/28 08:24:28;;;;;;;0.30;0.30;;;17.60;30.20;;;;;;4996792;28;20199;-66
2022/02/28 08:26:54;;;;;;;0.40;0.40;;;18.00;31.00;;;;;;4996929;28;20908;-66
2022/02/28 08:29:20;;;;;;;0.30;0.30;;;18.60;29.80;;;;;;4996941;28;20168;-66
2022/02/28 08:31:45;;;;;;;0.30;0.30;;;18.60;29.10;;;;;;4996443;28;20183;-66
2022/02/28 08:34:11;;;;;;;0.30;0.30;;;18.20;29.20;;;;;;4996677;28;20302;-67
2022/02/28 08:36:37;;;;;;;0.30;0.30;;;17.70;29.40;;;;;;4996465;28;20565;-66
2022/02/28 08:39:04;;;;;;;0.30;0.30;;;17.40;30.90;;;;;;4996408;28;20418;-66
2022/02/28 08:41:30;;;;;;;3.23;2.93;;;17.60;30.70;;;;;;4996619;28;20212;-66
2022/02/28 08:43:55;;;;;;;0.40;0.40;;;17.70;31.00;;;;;;4996416;28;20438;-67
2022/02/28 08:46:21;;;;;;;0.30;0.30;;;17.80;30.60;;;;;;4996578;28;20575;-67
2022/02/28 08:48:47;;;;;;;0.40;0.40;;;18.30;30.60;;;;;;4996592;28;20180;-65
2022/02/28 08:51:12;;;;;;;1.13;1.13;;;18.80;30.10;;;;;;4996353;28;20187;-66
2022/02/28 08:53:38;;;;;;;0.30;0.30;;;19.20;29.30;;;;;;4996258;28;20201;-67
2022/02/28 08:56:05;;;;;;;0.30;0.30;;;19.40;28.80;;;;;;4996227;28;20256;-67
2022/02/28 08:58:30;;;;;;;0.30;0.30;;;20.00;28.70;;;;;;4996449;28;20164;-66
2022/02/28 09:00:56;;;;;;;0.70;0.70;;;20.60;28.30;;;;;;4996055;28;20406;-67
2022/02/28 09:03:22;;;;;;;0.40;0.40;;;21.20;27.30;;;;;;4996071;28;20290;-67
2022/02/28 09:05:48;;;;;;;0.87;0.70;;;21.40;27.10;;;;;;4996064;28;20544;-67
2022/02/28 09:08:13;;;;;;;0.30;0.30;;;21.00;26.40;;;;;;4995919;28;20172;-67
2022/02/28 09:10:39;;;;;;;0.40;0.40;;;21.20;26.90;;;;;;4995802;28;20638;-67
2022/02/28 09:13:05;;;;;;;0.30;0.30;;;21.20;25.90;;;;;;4995775;28;20462;-67
2022/02/28 09:15:31;;;;;;;0.50;0.50;;;21.60;26.40;;;;;;4995780;28;20232;-67
2022/02/28 09:17:57;;;;;;;1.47;1.47;;;22.00;26.00;;;;;;4995823;28;20165;-66
2022/02/28 09:20:23;;;;;;;0.30;0.30;;;22.40;26.00;;;;;;4995844;28;20542;-68
2022/02/28 09:22:48;;;;;;;0.70;0.70;;;22.10;25.30;;;;;;4995612;28;20514;-66
2022/02/28 09:25:14;;;;;;;0.30;0.30;;;21.20;25.60;;;;;;4995673;28;20494;-68
2022/02/28 09:27:40;;;;;;;0.40;0.40;;;20.80;26.30;;;;;;4995578;28;20168;-67
2022/02/28 09:30:07;;;;;;;0.30;0.30;;;20.70;26.40;;;;;;4995568;28;20248;-67
2022/02/28 09:32:33;;;;;;;0.30;0.30;;;21.60;26.30;;;;;;4995736;28;20465;-68
2022/02/28 09:34:59;;;;;;;0.30;0.30;;;22.00;25.70;;;;;;4995527;28;20449;-67
2022/02/28 09:37:24;;;;;;;0.50;0.50;;;22.70;25.70;;;;;;4995615;28;20811;-68
2022/02/28 09:39:50;;;;;;;0.40;0.40;;;23.70;24.90;;;;;;4995421;28;20185;-67
2022/02/28 09:42:17;;;;;;;1.13;1.13;;;23.90;24.20;;;;;;4995349;28;20193;-66
2022/02/28 09:44:44;;;;;;;0.40;0.40;;;24.20;24.20;;;;;;4995332;28;20167;-68
2022/02/28 09:47:10;;;;;;;0.40;0.40;;;24.20;23.80;;;;;;4995716;28;20885;-68
2022/02/28 09:49:36;;;;;;;0.40;0.40;;;24.60;24.00;;;;;;4977890;28;20415;-68
2022/02/28 09:52:02;;;;;;;0.50;0.50;;;25.00;24.10;;;;;;4995109;28;20203;-68
2022/02/28 09:54:27;;;;;;;0.30;0.30;;;25.30;23.70;;;;;;4995206;28;20411;-67
2022/02/28 09:56:53;;;;;;;0.43;0.43;;;25.00;23.70;;;;;;4995205;28;20211;-66
2022/02/28 09:59:20;;;;;;;0.50;0.50;;;25.10;23.40;;;;;;4995200;28;20195;-68
2022/02/28 10:01:46;;;;;;;0.30;0.30;;;24.90;23.80;;;;;;4994841;28;20191;-68
2022/02/28 10:04:16;;;;;;;0.40;0.40;;;25.30;23.30;;;;;;4994965;28;20422;-67
2022/02/28 10:06:43;;;;;;;0.30;0.30;;;25.20;22.90;;;;;;4995156;28;20415;-68
2022/02/28 10:09:15;;;;;;;0.30;0.30;;;25.30;23.40;;;;;;4995030;28;20450;-67
2022/02/28 10:11:41;;;;;;;0.30;0.30;;;25.20;22.60;;;;;;4994465;28;20435;-67
2022/02/28 10:14:09;;;;;;;0.30;0.30;;;24.70;22.40;;;;;;4994847;28;20391;-67
2022/02/28 10:16:42;;;;;;;0.40;0.40;;;24.30;22.40;;;;;;4994768;28;20457;-68
2022/02/28 10:19:13;;;;;;;0.30;0.30;;;24.70;23.00;;;;;;4994128;28;20459;-68
2022/02/28 10:21:44;;;;;;;0.40;0.40;;;24.20;23.00;;;;;;4994446;28;20412;-67
2022/02/28 10:24:16;;;;;;;0.30;0.30;;;24.20;23.00;;;;;;4994623;28;20399;-67
2022/02/28 10:26:44;;;;;;;0.80;0.77;;;23.40;23.00;;;;;;4994626;28;20403;-66
2022/02/28 10:29:13;;;;;;;0.50;0.50;;;22.60;22.70;;;;;;4994555;28;20823;-66
2022/02/28 10:31:42;;;;;;;0.30;0.30;;;22.10;23.40;;;;;;4994402;28;20450;-67
2022/02/28 10:34:14;;;;;;;0.60;0.60;;;22.10;23.70;;;;;;4994723;28;20535;-68
2022/02/28 10:36:44;;;;;;;0.30;0.30;;;21.90;24.10;;;;;;4994546;28;20948;-68
2022/02/28 10:39:10;;;;;;;0.30;0.30;;;22.30;24.20;;;;;;4994409;28;20442;-67
2022/02/28 10:41:43;;;;;;;0.30;0.30;;;22.20;23.70;;;;;;4994353;28;20403;-66
2022/02/28 10:44:14;;;;;;;0.30;0.30;;;21.90;23.70;;;;;;4994403;28;20414;-67
2022/02/28 10:46:42;;;;;;;0.30;0.30;;;21.80;23.80;;;;;;4994427;28;20422;-67
2022/02/28 10:49:17;;;;;;;1.07;1.07;;;21.40;23.90;;;;;;4994336;28;20740;-69
2022/02/28 10:51:52;;;;;;;0.70;0.70;;;21.00;24.30;;;;;;4976447;28;20414;-67
2022/02/28 10:54:28;;;;;;;0.30;0.30;;;20.30;25.20;;;;;;4994041;28;20472;-69
2022/02/28 10:56:59;;;;;;;0.40;0.40;;;19.40;25.60;;;;;;4994056;28;20462;-68
2022/02/28 10:59:29;;;;;;;0.40;0.40;;;19.60;25.60;;;;;;4994255;28;20436;-68
2022/02/28 11:01:56;;;;;;;0.50;0.50;;;19.80;25.80;;;;;;4993831;28;20409;-67
2022/02/28 11:04:34;;;;;;;0.60;0.60;;;19.60;26.00;;;;;;4994079;28;20418;-67
2022/02/28 11:07:00;;;;;;;0.30;0.30;;;19.20;26.50;;;;;;4994053;28;20921;-67
2022/02/28 11:09:31;;;;;;;1.17;1.17;;;18.80;26.70;;;;;;4994185;28;20507;-66
2022/02/28 11:12:15;;;;;;;0.30;0.30;;;18.60;26.80;;;;;;4993790;28;20489;-67
2022/02/28 11:14:41;;;;;;;0.90;0.90;;;18.10;27.60;;;;;;4994161;28;20498;-68
2022/02/28 11:17:07;;;;;;;0.40;0.40;;;17.60;27.80;;;;;;4994033;28;20490;-67
2022/02/28 11:19:33;;;;;;;2.40;2.20;;;17.20;27.80;;;;;;4993963;28;20181;-67
2022/02/28 11:21:58;;;;;;;0.30;0.30;;;16.30;28.30;;;;;;4993857;28;20208;-68
2022/02/28 11:24:25;;;;;;;0.30;0.30;;;15.70;29.70;;;;;;4993909;28;20172;-68
2022/02/28 11:26:50;;;;;;;0.30;0.30;;;15.00;29.90;;;;;;4994178;28;20267;-66
2022/02/28 11:29:16;;;;;;;0.50;0.50;;;14.60;32.10;;;;;;4994116;28;20971;-67
2022/02/28 11:31:42;;;;;;;0.70;0.70;;;14.10;31.90;;;;;;4996414;28;20530;-66
2022/02/28 11:34:10;;;;;;;0.30;0.30;;;13.00;32.50;;;;;;4997806;28;20267;-67
2022/02/28 11:36:49;;;;;;;0.30;0.30;;;12.20;34.40;;;;;;4997674;28;20459;-67
2022/02/28 11:39:15;;;;;;;0.30;0.30;;;11.40;35.20;;;;;;4997776;28;20796;-67
2022/02/28 11:41:41;;;;;;;0.87;0.87;;;11.00;36.60;;;;;;4997337;28;20195;-67
2022/02/28 11:44:08;;;;;;;0.30;0.30;;;11.10;36.30;;;;;;4997790;28;20165;-68
2022/02/28 11:46:37;;;;;;;0.30;0.30;;;11.00;37.20;;;;;;4997650;28;20169;-66
2022/02/28 11:49:04;;;;;;;0.60;0.60;;;10.70;37.00;;;;;;4997552;28;20203;-67
2022/02/28 11:51:35;;;;;;;0.40;0.40;;;10.70;37.50;;;;;;4997348;28;20610;-67
2022/02/28 11:54:06;;;;;;;1.48;1.48;;;10.30;37.80;;;;;;4997321;28;20199;-67
2022/02/28 11:56:34;;;;;;;0.30;0.30;;;10.00;37.90;;;;;;4997362;28;20229;-67
2022/02/28 11:59:00;;;;;;;0.30;0.30;;;10.20;38.60;;;;;;4997457;28;20171;-68
2022/02/28 12:01:30;;;;;;;0.40;0.40;;;10.50;38.20;;;;;;4997103;28;20620;-66
2022/02/28 12:04:11;;;;;;;0.40;0.40;;;10.60;38.20;;;;;;4997230;28;20662;-67
2022/02/28 12:07:14;;;;;;;0.30;0.30;;;10.90;37.70;;;;;;4997436;28;20176;-67
2022/02/28 12:09:43;;;;;;;0.50;0.50;;;11.00;36.80;;;;;;4997270;28;20180;-66
2022/02/28 12:12:31;;;;;;;0.55;0.55;;;11.20;36.90;;;;;;4996669;28;20227;-68
2022/02/28 12:14:57;;;;;;;0.85;0.85;;;10.60;37.00;;;;;;4997099;28;20176;-68
2022/02/28 12:20:18;;;;;;;0.30;0.30;;;10.80;38.30;;;;;;4996835;28;20528;-69
2022/02/28 12:22:58;;;;;;;0.30;0.30;;;11.20;38.00;;;;;;4996788;28;20191;-70
2022/02/28 12:25:37;;;;;;;0.30;0.30;;;11.50;37.90;;;;;;4996831;28;20168;-70
2022/02/28 12:28:29;;;;;;;0.30;0.30;;;11.20;37.80;;;;;;4997006;28;20178;-70
2022/02/28 12:31:17;;;;;;;0.30;0.30;;;11.10;38.20;;;;;;4996503;28;20634;-69
2022/02/28 12:33:42;;;;;;;0.30;0.30;;;10.60;38.30;;;;;;4996899;28;20634;-69
2022/02/28 12:36:21;;;;;;;0.40;0.40;;;10.50;39.60;;;;;;4996516;28;20224;-69
2022/02/28 12:38:55;;;;;;;0.30;0.30;;;10.90;39.40;;;;;;4996668;28;20172;-69
2022/02/28 12:41:29;;;;;;;0.30;0.30;;;10.70;39.40;;;;;;4996462;28;20172;-68
2022/02/28 12:43:57;;;;;;;0.40;0.40;;;10.80;40.00;;;;;;4995967;28;20184;-69
2022/02/28 12:46:42;;;;;;;0.30;0.30;;;10.70;39.60;;;;;;4996582;28;20191;-70
2022/02/28 12:49:09;;;;;;;0.40;0.40;;;11.20;38.70;;;;;;4996701;28;20199;-68
2022/02/28 12:51:37;;;;;;;0.30;0.30;;;11.00;42.60;;;;;;4996354;28;20169;-68